createdAt,value
2018-06-14T00:01:05.139Z,11.97
2018-06-14T00:03:08.833Z,13.23
2018-06-14T00:05:12.446Z,12.43
2018-06-14T00:07:16.087Z,13.20
2018-06-14T00:09:19.743Z,13.87
2018-06-14T00:11:23.363Z,13.00
2018-06-14T00:13:27.001Z,12.23
2018-06-14T00:15:30.630Z,12.67
2018-06-14T00:17:34.275Z,12.97
2018-06-14T00:19:37.958Z,12.33
2018-06-14T00:21:41.542Z,13.20
2018-06-14T00:23:45.202Z,12.87
2018-06-14T00:25:48.816Z,12.40
2018-06-14T00:27:52.548Z,12.87
2018-06-14T00:29:56.125Z,12.90
2018-06-14T00:32:00.152Z,13.33
2018-06-14T00:34:03.821Z,13.40
2018-06-14T00:36:07.528Z,13.40
2018-06-14T00:38:11.161Z,12.53
2018-06-14T00:40:14.833Z,13.00
2018-06-14T00:42:18.608Z,13.60
2018-06-14T00:44:22.296Z,13.73
2018-06-14T00:46:25.919Z,12.70
2018-06-14T00:48:29.569Z,13.53
2018-06-14T00:50:33.186Z,15.13
2018-06-14T00:52:36.873Z,15.07
2018-06-14T00:54:40.511Z,13.40
2018-06-14T00:56:55.236Z,12.73
2018-06-14T00:58:58.887Z,13.10
2018-06-14T01:01:02.551Z,14.07
2018-06-14T01:03:06.352Z,14.30
2018-06-14T01:05:09.965Z,14.57
2018-06-14T01:07:13.612Z,14.40
2018-06-14T01:09:17.250Z,13.37
2018-06-14T01:11:20.889Z,13.60
2018-06-14T01:13:24.581Z,13.77
2018-06-14T01:15:28.182Z,14.90
2018-06-14T01:17:31.822Z,14.97
2018-06-14T01:19:35.766Z,14.80
2018-06-14T01:21:39.349Z,14.93
2018-06-14T01:23:43.060Z,14.10
2018-06-14T01:25:46.732Z,14.70
2018-06-14T01:27:50.306Z,15.33
2018-06-14T01:29:53.981Z,15.17
2018-06-14T01:31:57.921Z,15.63
2018-06-14T01:34:01.932Z,15.50
2018-06-14T01:36:05.568Z,15.07
2018-06-14T01:38:22.699Z,15.13
2018-06-14T01:40:26.267Z,15.83
2018-06-14T01:42:29.862Z,16.23
2018-06-14T01:44:33.490Z,16.60
2018-06-14T01:46:37.148Z,17.20
2018-06-14T01:48:40.725Z,17.03
2018-06-14T01:50:44.316Z,16.87
2018-06-14T01:52:47.965Z,16.40
2018-06-14T01:54:51.803Z,16.73
2018-06-14T01:56:55.413Z,15.40
2018-06-14T01:58:59.026Z,15.17
2018-06-14T02:01:03.019Z,14.43
2018-06-14T02:03:06.646Z,15.80
2018-06-14T02:05:10.291Z,14.47
2018-06-14T02:07:13.978Z,15.67
2018-06-14T02:09:17.733Z,15.47
2018-06-14T02:11:21.372Z,15.70
2018-06-14T02:13:25.074Z,15.70
2018-06-14T02:15:29.381Z,16.57
2018-06-14T02:17:32.963Z,15.60
2018-06-14T02:19:36.641Z,16.90
2018-06-14T02:21:40.262Z,16.13
2018-06-14T02:23:43.939Z,16.40
2018-06-14T02:25:47.785Z,16.10
2018-06-14T02:27:51.611Z,16.13
2018-06-14T02:29:55.269Z,15.70
2018-06-14T02:31:58.920Z,16.20
2018-06-14T02:34:02.569Z,15.17
2018-06-14T02:36:06.304Z,16.67
2018-06-14T02:38:10.031Z,16.37
2018-06-14T02:40:14.040Z,17.40
2018-06-14T02:42:17.708Z,16.37
2018-06-14T02:44:21.626Z,15.70
2018-06-14T02:46:25.253Z,16.23
2018-06-14T02:48:28.879Z,16.00
2018-06-14T02:50:32.496Z,16.27
2018-06-14T02:52:36.537Z,16.30
2018-06-14T02:54:40.091Z,16.77
2018-06-14T02:56:43.704Z,16.73
2018-06-14T02:58:47.324Z,16.37
2018-06-14T03:00:50.959Z,15.97
2018-06-14T03:02:54.642Z,16.03
2018-06-14T03:04:58.415Z,16.37
2018-06-14T03:07:02.037Z,15.23
2018-06-14T03:09:07.956Z,16.43
2018-06-14T03:11:11.526Z,17.30
2018-06-14T03:13:15.097Z,17.37
2018-06-14T03:15:18.817Z,16.27
2018-06-14T03:17:22.624Z,15.43
2018-06-14T03:19:26.160Z,15.47
2018-06-14T03:21:29.765Z,16.47
2018-06-14T03:23:33.515Z,15.97
2018-06-14T03:25:37.079Z,15.87
2018-06-14T03:27:40.596Z,16.40
2018-06-14T03:29:44.214Z,15.70
2018-06-14T03:31:47.759Z,16.90
2018-06-14T03:33:51.298Z,17.40
2018-06-14T03:35:54.945Z,17.50
2018-06-14T03:37:58.528Z,15.73
2018-06-14T03:40:02.132Z,15.87
2018-06-14T03:42:07.923Z,16.70
2018-06-14T03:44:11.502Z,16.67
2018-06-14T03:46:15.121Z,15.90
2018-06-14T03:48:18.687Z,16.70
2018-06-14T03:50:22.264Z,16.33
2018-06-14T03:52:25.806Z,17.30
2018-06-14T03:54:29.440Z,15.90
2018-06-14T03:56:33.006Z,14.43
2018-06-14T03:58:36.560Z,15.97
2018-06-14T04:00:40.165Z,15.63
2018-06-14T04:02:43.696Z,15.37
2018-06-14T04:04:47.332Z,16.23
2018-06-14T04:06:50.898Z,16.13
2018-06-14T04:08:54.420Z,15.23
2018-06-14T04:10:57.997Z,15.93
2018-06-14T04:13:01.577Z,15.83
2018-06-14T04:15:05.215Z,16.63
2018-06-14T04:17:08.843Z,16.63
2018-06-14T04:19:12.408Z,15.80
2018-06-14T04:21:15.976Z,16.90
2018-06-14T04:23:19.571Z,15.63
2018-06-14T04:25:23.189Z,17.10
2018-06-14T04:27:26.782Z,15.43
2018-06-14T04:29:30.445Z,16.60
2018-06-14T04:31:34.104Z,16.30
2018-06-14T04:33:40.272Z,16.00
2018-06-14T04:35:46.858Z,14.27
2018-06-14T04:37:54.426Z,17.00
2018-06-14T04:39:59.809Z,16.43
2018-06-14T04:42:03.888Z,17.17
2018-06-14T04:44:07.672Z,17.23
2018-06-14T04:46:11.879Z,15.63
2018-06-14T04:49:53.924Z,15.53
2018-06-14T04:52:01.235Z,16.97
2018-06-14T04:54:05.499Z,16.30
2018-06-14T04:56:12.469Z,15.03
2018-06-14T04:58:29.479Z,16.00
2018-06-14T05:00:33.896Z,16.03
2018-06-14T05:02:40.822Z,16.60
2018-06-14T05:04:44.880Z,14.97
2018-06-14T05:06:48.594Z,16.43
2018-06-14T05:08:52.228Z,15.20
2018-06-14T05:10:56.586Z,16.77
2018-06-14T05:13:01.575Z,16.73
2018-06-14T05:15:05.832Z,18.03
2018-06-14T05:17:11.359Z,17.57
2018-06-14T05:19:16.287Z,18.07
2018-06-14T05:21:24.610Z,16.57
2018-06-14T05:23:33.035Z,16.93
2018-06-14T05:25:37.196Z,16.33
2018-06-14T05:27:41.346Z,15.07
2018-06-14T05:29:46.931Z,16.23
2018-06-14T05:31:55.913Z,16.30
2018-06-14T05:34:00.841Z,15.80
2018-06-14T05:36:05.764Z,15.40
2018-06-14T05:38:10.233Z,15.30
2018-06-14T05:40:16.400Z,14.97
2018-06-14T05:42:36.852Z,15.20
2018-06-14T05:44:42.717Z,14.83
2018-06-14T05:47:13.393Z,15.30
2018-06-14T05:49:18.308Z,14.97
2018-06-14T05:51:26.628Z,13.77
2018-06-14T05:53:34.701Z,14.87
2018-06-14T05:55:39.213Z,15.70
2018-06-14T05:57:43.767Z,14.53
2018-06-14T05:59:48.170Z,15.87
2018-06-14T06:01:52.123Z,15.58
2018-06-14T06:03:55.937Z,15.77
2018-06-14T06:05:59.580Z,15.00
2018-06-14T06:08:03.290Z,15.50
2018-06-14T06:10:07.397Z,14.30
2018-06-14T06:12:18.425Z,14.50
2018-06-14T06:14:23.184Z,15.27
2018-06-14T06:16:27.574Z,16.13
2018-06-14T06:18:31.253Z,14.90
2018-06-14T06:20:38.019Z,16.17
2018-06-14T06:22:42.444Z,16.00
2018-06-14T06:24:49.703Z,16.00
2018-06-14T06:26:53.766Z,14.97
2018-06-14T06:28:58.305Z,13.33
2018-06-14T06:31:02.239Z,14.23
2018-06-14T06:33:08.010Z,16.23
2018-06-14T06:35:11.907Z,13.53
2018-06-14T06:37:16.727Z,13.93
2018-06-14T06:39:21.133Z,13.27
2018-06-14T06:41:29.308Z,13.30
2018-06-14T06:43:56.906Z,12.97
2018-06-14T06:46:01.599Z,13.10
2018-06-14T06:48:06.124Z,14.43
2018-06-14T06:50:09.828Z,13.33
2018-06-14T06:52:14.767Z,12.33
2018-06-14T06:54:20.107Z,12.63
2018-06-14T06:56:23.971Z,11.67
2018-06-14T06:58:30.520Z,12.07
2018-06-14T07:00:34.344Z,12.17
2018-06-14T07:02:39.677Z,11.83
2018-06-14T07:04:44.065Z,12.10
2018-06-14T07:06:49.031Z,10.73
2018-06-14T07:08:53.081Z,11.90
2018-06-14T07:10:57.354Z,11.27
2018-06-14T07:13:01.264Z,13.10
2018-06-14T07:15:05.813Z,12.50
2018-06-14T07:17:09.699Z,10.57
2018-06-14T07:19:13.303Z,11.03
2018-06-14T07:21:18.016Z,11.43
2018-06-14T07:23:21.638Z,9.67
2018-06-14T07:25:25.495Z,10.07
2018-06-14T07:27:29.433Z,10.40
2018-06-14T07:29:33.339Z,9.97
2018-06-14T07:31:36.973Z,8.37
2018-06-14T07:33:41.073Z,9.10
2018-06-14T07:35:44.744Z,8.97
2018-06-14T07:37:48.446Z,9.80
2018-06-14T07:39:52.443Z,8.77
2018-06-14T07:41:57.270Z,8.50
2018-06-14T07:44:05.813Z,8.57
2018-06-14T07:46:09.709Z,8.90
2018-06-14T07:48:14.617Z,8.57
2018-06-14T07:50:25.506Z,9.10
2018-06-14T07:52:30.349Z,5.97
2018-06-14T07:54:35.308Z,6.37
2018-06-14T07:56:41.972Z,5.67
2018-06-14T07:58:47.626Z,6.80
2018-06-14T08:00:51.998Z,5.33
2018-06-14T08:02:58.511Z,5.70
2018-06-14T08:05:03.196Z,5.27
2018-06-14T08:07:11.701Z,4.47
2018-06-14T08:09:16.752Z,5.50
2018-06-14T08:11:22.143Z,5.93
2018-06-14T08:13:26.836Z,5.90
2018-06-14T08:15:33.318Z,5.50
2018-06-14T08:17:38.477Z,5.00
2018-06-14T08:19:42.485Z,5.42
2018-06-14T08:21:47.025Z,4.70
2018-06-14T08:23:51.080Z,5.10
2018-06-14T08:25:54.888Z,4.63
2018-06-14T08:28:00.491Z,4.60
2018-06-14T08:30:06.378Z,3.73
2018-06-14T08:32:10.585Z,4.30
2018-06-14T08:34:16.252Z,3.63
2018-06-14T08:36:41.859Z,4.30
2018-06-14T08:39:10.977Z,5.00
2018-06-14T08:44:04.256Z,4.43
2018-06-14T08:46:19.146Z,4.40
2018-06-14T08:48:27.066Z,4.40
2018-06-14T08:50:34.084Z,4.97
2018-06-14T08:52:38.482Z,4.53
2018-06-14T08:54:45.690Z,4.90
2018-06-14T08:56:57.183Z,5.30
2018-06-14T08:59:02.511Z,5.00
2018-06-14T09:01:06.272Z,4.70
2018-06-14T09:03:10.163Z,4.80
2018-06-14T09:05:13.796Z,5.20
2018-06-14T09:07:18.956Z,4.83
2018-06-14T09:09:23.067Z,4.57
2018-06-14T09:11:26.929Z,5.07
2018-06-14T09:13:31.016Z,4.40
2018-06-14T09:15:35.074Z,4.73
2018-06-14T09:17:39.138Z,4.83
2018-06-14T09:19:42.772Z,4.10
2018-06-14T09:21:46.751Z,4.13
2018-06-14T09:23:50.672Z,4.30
2018-06-14T09:25:54.568Z,4.87
2018-06-14T09:27:59.045Z,4.50
2018-06-14T09:30:04.425Z,4.13
2018-06-14T09:32:08.252Z,4.50
2018-06-14T09:34:12.328Z,4.53
2018-06-14T09:36:16.101Z,3.87
2018-06-14T09:38:20.394Z,4.00
2018-06-14T09:40:24.117Z,3.53
2018-06-14T09:42:35.453Z,3.87
2018-06-14T09:44:39.360Z,3.60
2018-06-14T09:46:43.382Z,3.73
2018-06-14T09:48:51.620Z,4.00
2018-06-14T09:50:56.100Z,4.03
2018-06-14T09:53:00.044Z,6.63
2018-06-14T09:55:04.942Z,3.13
2018-06-14T09:57:12.526Z,3.27
2018-06-14T09:59:17.256Z,3.53
2018-06-14T10:01:23.199Z,3.03
2018-06-14T10:03:27.077Z,3.37
2018-06-14T10:05:30.792Z,4.43
2018-06-14T10:07:34.470Z,3.90
2018-06-14T10:09:38.136Z,3.40
2018-06-14T10:11:41.929Z,3.77
2018-06-14T10:13:45.616Z,3.57
2018-06-14T10:15:49.232Z,4.03
2018-06-14T10:17:53.218Z,3.90
2018-06-14T10:19:57.107Z,3.50
2018-06-14T10:22:00.703Z,3.97
2018-06-14T10:24:04.524Z,4.30
2018-06-14T10:26:08.492Z,3.93
2018-06-14T10:28:12.090Z,4.90
2018-06-14T10:30:16.485Z,4.07
2018-06-14T10:32:20.063Z,3.43
2018-06-14T10:34:23.816Z,4.37
2018-06-14T10:36:27.498Z,3.77
2018-06-14T10:38:31.200Z,3.30
2018-06-14T10:40:34.874Z,3.90
2018-06-14T10:42:38.633Z,4.03
2018-06-14T10:44:42.665Z,3.50
2018-06-14T10:46:46.339Z,3.73
2018-06-14T10:48:50.008Z,3.23
2018-06-14T10:51:00.376Z,3.70
2018-06-14T10:53:07.236Z,3.33
2018-06-14T10:55:11.067Z,3.53
2018-06-14T10:57:14.794Z,3.50
2018-06-14T10:59:20.603Z,3.17
2018-06-14T11:01:24.395Z,3.30
2018-06-14T11:03:28.662Z,3.03
2018-06-14T11:05:32.604Z,3.20
2018-06-14T11:07:36.541Z,2.90
2018-06-14T11:09:40.252Z,3.40
2018-06-14T11:11:43.946Z,3.20
2018-06-14T11:13:48.008Z,3.10
2018-06-14T11:15:52.452Z,2.50
2018-06-14T11:17:59.862Z,2.60
2018-06-14T11:20:03.755Z,2.80
2018-06-14T11:22:07.471Z,2.63
2018-06-14T11:24:11.110Z,3.00
2018-06-14T11:26:14.891Z,3.13
2018-06-14T11:28:18.639Z,2.80
2018-06-14T11:30:22.341Z,3.00
2018-06-14T11:32:26.235Z,2.83
2018-06-14T11:34:29.885Z,3.50
2018-06-14T11:36:34.203Z,2.63
2018-06-14T11:38:37.894Z,2.67
2018-06-14T11:40:41.606Z,3.13
2018-06-14T11:42:45.369Z,2.80
2018-06-14T11:44:49.004Z,2.97
2018-06-14T11:46:52.800Z,2.77
2018-06-14T11:48:56.508Z,3.00
2018-06-14T11:51:02.989Z,2.97
2018-06-14T11:53:06.669Z,3.30
2018-06-14T11:55:10.430Z,3.20
2018-06-14T11:57:13.979Z,3.30
2018-06-14T11:59:17.490Z,3.10
2018-06-14T12:01:21.464Z,3.60
2018-06-14T12:03:31.304Z,3.13
2018-06-14T12:05:35.884Z,3.70
2018-06-14T12:07:43.146Z,3.70
2018-06-14T12:09:47.891Z,3.70
2018-06-14T12:11:52.370Z,3.73
2018-06-14T12:13:57.594Z,3.90
2018-06-14T12:16:01.237Z,3.47
2018-06-14T12:18:05.080Z,4.33
2018-06-14T12:20:09.004Z,2.83
2018-06-14T12:22:13.283Z,3.70
2018-06-14T12:24:18.479Z,3.50
2018-06-14T12:26:29.349Z,3.80
2018-06-14T12:28:32.936Z,3.60
2018-06-14T12:30:36.743Z,3.70
2018-06-14T12:32:40.538Z,3.73
2018-06-14T12:34:44.351Z,3.30
2018-06-14T12:36:49.203Z,3.60
2018-06-14T12:38:53.119Z,3.20
2018-06-14T12:40:57.095Z,3.37
2018-06-14T12:43:00.828Z,3.23
2018-06-14T12:45:06.615Z,3.63
2018-06-14T12:47:10.283Z,3.30
2018-06-14T12:49:14.595Z,3.40
2018-06-14T12:51:18.415Z,3.93
2018-06-14T12:53:22.276Z,3.67
2018-06-14T12:55:26.227Z,3.63
2018-06-14T12:57:30.129Z,3.70
2018-06-14T12:59:40.163Z,3.80
2018-06-14T13:01:44.052Z,4.30
2018-06-14T13:03:47.668Z,3.93
2018-06-14T13:05:51.693Z,4.00
2018-06-14T13:07:55.939Z,3.50
2018-06-14T13:10:00.034Z,3.85
2018-06-14T13:12:04.513Z,3.80
2018-06-14T13:14:10.409Z,3.57
2018-06-14T13:16:16.172Z,3.80
2018-06-14T13:18:20.133Z,4.10
2018-06-14T13:20:24.957Z,4.20
2018-06-14T13:22:30.396Z,3.90
2018-06-14T13:24:39.078Z,3.60
2018-06-14T13:26:43.153Z,4.20
2018-06-14T13:28:47.111Z,4.37
2018-06-14T13:30:50.934Z,3.63
2018-06-14T13:32:54.589Z,3.97
2018-06-14T13:34:58.606Z,4.33
2018-06-14T13:37:03.069Z,4.30
2018-06-14T13:39:08.222Z,4.50
2018-06-14T13:41:12.194Z,5.07
2018-06-14T13:43:16.816Z,3.87
2018-06-14T13:45:20.757Z,3.97
2018-06-14T13:47:24.712Z,3.70
2018-06-14T13:49:28.492Z,3.73
2018-06-14T13:51:32.223Z,4.10
2018-06-14T13:53:35.939Z,3.57
2018-06-14T13:55:39.533Z,4.10
2018-06-14T13:57:43.180Z,4.00
2018-06-14T13:59:46.964Z,3.93
2018-06-14T14:01:50.572Z,4.47
2018-06-14T14:03:54.276Z,4.43
2018-06-14T14:05:57.966Z,4.27
2018-06-14T14:08:01.617Z,4.23
2018-06-14T14:10:05.421Z,3.57
2018-06-14T14:12:08.988Z,3.77
2018-06-14T14:14:12.675Z,3.90
2018-06-14T14:16:16.255Z,4.00
2018-06-14T14:18:19.896Z,3.50
2018-06-14T14:20:23.516Z,3.60
2018-06-14T14:22:27.175Z,4.00
2018-06-14T14:24:30.843Z,4.30
2018-06-14T14:26:34.469Z,4.07
2018-06-14T14:28:38.097Z,4.70
2018-06-14T14:30:41.944Z,4.20
2018-06-14T14:32:46.608Z,3.73
2018-06-14T14:34:50.280Z,4.43
2018-06-14T14:36:53.946Z,4.10
2018-06-14T14:38:57.569Z,4.00
2018-06-14T14:41:01.224Z,3.67
2018-06-14T14:43:04.859Z,3.77
2018-06-14T14:45:08.471Z,4.00
2018-06-14T14:47:12.159Z,4.53
2018-06-14T14:49:15.749Z,4.30
2018-06-14T14:51:19.402Z,4.27
2018-06-14T14:53:23.008Z,4.43
2018-06-14T14:55:27.111Z,4.30
2018-06-14T14:57:30.671Z,4.20
2018-06-14T14:59:35.223Z,4.33
2018-06-14T15:01:38.856Z,4.40
2018-06-14T15:03:42.548Z,4.60
2018-06-14T15:05:46.212Z,4.90
2018-06-14T15:07:49.856Z,4.60
2018-06-14T15:09:53.440Z,4.83
2018-06-14T15:11:57.077Z,4.80
2018-06-14T15:14:00.602Z,4.90
2018-06-14T15:16:04.277Z,4.57
2018-06-14T15:18:07.936Z,4.40
2018-06-14T15:20:11.493Z,4.60
2018-06-14T15:22:15.239Z,4.83
2018-06-14T15:24:18.855Z,5.23
2018-06-14T15:26:22.415Z,5.17
2018-06-14T15:28:26.322Z,4.83
2018-06-14T15:30:30.076Z,4.80
2018-06-14T15:32:33.767Z,4.73
2018-06-14T15:34:37.420Z,4.33
2018-06-14T15:36:41.074Z,4.50
2018-06-14T15:38:44.709Z,4.57
2018-06-14T15:40:48.416Z,4.60
2018-06-14T15:42:52.046Z,4.40
2018-06-14T15:44:55.759Z,4.40
2018-06-14T15:46:59.352Z,4.30
2018-06-14T15:49:03.015Z,4.53
2018-06-14T15:51:06.998Z,3.90
2018-06-14T15:53:10.675Z,4.87
2018-06-14T15:55:25.363Z,4.47
2018-06-14T15:57:29.384Z,4.70
2018-06-14T15:59:32.990Z,4.70
2018-06-14T16:01:36.682Z,4.77
2018-06-14T16:03:40.356Z,4.63
2018-06-14T16:05:44.043Z,4.97
2018-06-14T16:07:48.336Z,4.83
2018-06-14T16:09:51.912Z,4.80
2018-06-14T16:11:55.533Z,4.83
2018-06-14T16:13:59.296Z,5.10
2018-06-14T16:16:02.966Z,5.13
2018-06-14T16:18:06.596Z,5.30
2018-06-14T16:20:10.201Z,5.10
2018-06-14T16:22:13.809Z,6.40
2018-06-14T16:24:17.498Z,6.07
2018-06-14T16:26:21.117Z,6.07
2018-06-14T16:28:24.733Z,5.40
2018-06-14T16:30:28.420Z,5.73
2018-06-14T16:32:32.060Z,5.40
2018-06-14T16:34:35.704Z,5.77
2018-06-14T16:36:39.334Z,6.33
2018-06-14T16:38:43.367Z,6.33
2018-06-14T16:40:46.928Z,6.50
2018-06-14T16:42:50.557Z,6.00
2018-06-14T16:44:54.116Z,6.00
2018-06-14T16:46:58.285Z,6.13
2018-06-14T16:49:01.911Z,7.10
2018-06-14T16:51:05.514Z,6.90
2018-06-14T16:53:09.083Z,6.03
2018-06-14T16:55:12.791Z,6.03
2018-06-14T16:57:16.642Z,6.17
2018-06-14T16:59:20.386Z,6.10
2018-06-14T17:01:24.048Z,6.17
2018-06-14T17:03:27.810Z,6.00
2018-06-14T17:05:31.460Z,6.00
2018-06-14T17:07:35.106Z,6.53
2018-06-14T17:09:38.787Z,6.10
2018-06-14T17:11:43.230Z,5.70
2018-06-14T17:13:46.819Z,5.83
2018-06-14T17:15:50.447Z,5.50
2018-06-14T17:17:54.100Z,5.10
2018-06-14T17:19:57.682Z,5.53
2018-06-14T17:22:01.534Z,5.77
2018-06-14T17:24:05.328Z,6.17
2018-06-14T17:26:08.989Z,5.63
2018-06-14T17:28:12.714Z,5.20
2018-06-14T17:30:16.476Z,5.40
2018-06-14T17:32:20.234Z,5.13
2018-06-14T17:34:23.908Z,5.53
2018-06-14T17:36:27.603Z,4.67
2018-06-14T17:38:31.208Z,5.17
2018-06-14T17:40:34.993Z,5.10
2018-06-14T17:42:38.655Z,4.70
2018-06-14T17:44:42.307Z,5.17
2018-06-14T17:46:46.001Z,4.97
2018-06-14T17:48:49.598Z,5.03
2018-06-14T17:50:53.269Z,4.93
2018-06-14T17:52:56.931Z,5.00
2018-06-14T17:55:00.633Z,5.30
2018-06-14T17:57:04.390Z,4.60
2018-06-14T17:59:08.041Z,4.50
2018-06-14T18:01:11.651Z,4.63
2018-06-14T18:03:15.280Z,4.60
2018-06-14T18:05:18.869Z,4.13
2018-06-14T18:07:22.664Z,4.53
2018-06-14T18:09:26.254Z,4.40
2018-06-14T18:11:29.885Z,4.30
2018-06-14T18:13:33.630Z,4.47
2018-06-14T18:15:37.750Z,5.10
2018-06-14T18:17:41.316Z,4.60
2018-06-14T18:19:44.896Z,5.10
2018-06-14T18:21:48.592Z,4.17
2018-06-14T18:23:52.191Z,4.23
2018-06-14T18:25:55.830Z,4.03
2018-06-14T18:27:59.477Z,4.23
2018-06-14T18:30:03.212Z,4.33
2018-06-14T18:32:06.965Z,4.07
2018-06-14T18:34:10.641Z,4.50
2018-06-14T18:36:14.288Z,4.10
2018-06-14T18:38:17.938Z,5.00
2018-06-14T18:40:21.649Z,4.60
2018-06-14T18:42:25.313Z,3.80
2018-06-14T18:44:29.150Z,3.47
2018-06-14T18:46:32.772Z,3.67
2018-06-14T18:48:36.350Z,3.97
2018-06-14T18:50:39.944Z,3.40
2018-06-14T18:52:43.827Z,4.00
2018-06-14T18:54:47.419Z,3.77
2018-06-14T18:56:51.147Z,4.40
2018-06-14T18:58:54.802Z,3.80
2018-06-14T19:00:58.516Z,3.40
2018-06-14T19:03:02.102Z,4.00
2018-06-14T19:05:05.777Z,3.73
2018-06-14T19:07:09.465Z,3.83
2018-06-14T19:09:13.168Z,3.90
2018-06-14T19:11:16.785Z,4.37
2018-06-14T19:13:20.430Z,4.00
2018-06-14T19:15:24.091Z,4.37
2018-06-14T19:17:27.816Z,4.23
2018-06-14T19:19:31.559Z,4.67
2018-06-14T19:21:35.270Z,4.30
2018-06-14T19:23:39.267Z,4.20
2018-06-14T19:25:43.578Z,4.60
2018-06-14T19:27:47.745Z,4.57
2018-06-14T19:29:51.355Z,4.40
2018-06-14T19:31:54.951Z,4.97
2018-06-14T19:34:00.786Z,4.87
2018-06-14T19:36:04.526Z,4.30
2018-06-14T19:38:08.181Z,4.47
2018-06-14T19:40:11.869Z,3.97
2018-06-14T19:42:15.628Z,4.43
2018-06-14T19:44:19.370Z,4.07
2018-06-14T19:46:23.043Z,5.13
2018-06-14T19:48:26.714Z,4.50
2018-06-14T19:50:30.323Z,4.50
2018-06-14T19:52:33.966Z,4.67
2018-06-14T19:54:37.708Z,4.30
2018-06-14T19:56:41.443Z,4.97
2018-06-14T19:58:45.121Z,5.03
2018-06-14T20:00:48.799Z,5.03
2018-06-14T20:02:52.486Z,5.00
2018-06-14T20:04:56.154Z,5.67
2018-06-14T20:06:59.876Z,6.10
2018-06-14T20:09:04.082Z,5.13
2018-06-14T20:11:07.749Z,4.67
2018-06-14T20:13:11.333Z,4.90
2018-06-14T20:15:14.862Z,4.87
2018-06-14T20:17:18.568Z,4.80
2018-06-14T20:19:22.138Z,4.93
2018-06-14T20:21:25.769Z,4.77
2018-06-14T20:23:29.539Z,4.77
2018-06-14T20:25:33.180Z,4.87
2018-06-14T20:27:36.866Z,4.40
2018-06-14T20:29:40.557Z,4.67
2018-06-14T20:31:44.205Z,5.03
2018-06-14T20:33:47.820Z,4.40
2018-06-14T20:35:51.835Z,4.00
2018-06-14T20:37:55.465Z,4.17
2018-06-14T20:39:59.103Z,4.17
2018-06-14T20:42:02.757Z,3.70
2018-06-14T20:44:07.178Z,4.13
2018-06-14T20:46:10.834Z,3.60
2018-06-14T20:48:14.474Z,4.27
2018-06-14T20:50:18.310Z,4.00
2018-06-14T20:52:21.976Z,3.83
2018-06-14T20:54:25.579Z,3.83
2018-06-14T20:56:29.197Z,4.23
2018-06-14T20:58:32.774Z,3.73
2018-06-14T21:00:36.382Z,4.30
2018-06-14T21:02:40.040Z,4.03
2018-06-14T21:04:43.724Z,4.10
2018-06-14T21:06:47.353Z,3.97
2018-06-14T21:08:50.986Z,4.47
2018-06-14T21:10:54.587Z,5.00
2018-06-14T21:12:58.273Z,4.50
2018-06-14T21:15:01.888Z,5.30
2018-06-14T21:17:05.545Z,5.03
2018-06-14T21:19:09.148Z,5.30
2018-06-14T21:21:12.805Z,5.40
2018-06-14T21:23:16.421Z,5.63
2018-06-14T21:25:20.125Z,4.87
2018-06-14T21:27:23.738Z,4.93
2018-06-14T21:29:27.405Z,4.83
2018-06-14T21:31:31.052Z,5.90
2018-06-14T21:33:34.671Z,6.13
2018-06-14T21:35:38.241Z,5.93
2018-06-14T21:37:41.887Z,7.07
2018-06-14T21:39:45.482Z,7.23
2018-06-14T21:41:49.093Z,7.77
2018-06-14T21:43:52.786Z,6.77
2018-06-14T21:45:56.382Z,7.53
2018-06-14T21:48:00.017Z,7.20
2018-06-14T21:50:03.747Z,8.00
2018-06-14T21:52:07.352Z,7.23
2018-06-14T21:54:10.885Z,8.10
2018-06-14T21:56:14.509Z,8.50
2018-06-14T21:58:18.254Z,8.27
2018-06-14T22:00:23.631Z,7.97
2018-06-14T22:02:27.292Z,7.40
2018-06-14T22:04:31.766Z,7.93
2018-06-14T22:06:35.344Z,8.27
2018-06-14T22:08:38.976Z,8.30
2018-06-14T22:10:42.627Z,8.40
2018-06-14T22:12:46.268Z,9.57
2018-06-14T22:14:49.889Z,10.07
2018-06-14T22:16:53.551Z,10.03
2018-06-14T22:18:58.229Z,10.37
2018-06-14T22:21:01.880Z,10.90
2018-06-14T22:23:05.593Z,9.73
2018-06-14T22:25:09.242Z,8.63
2018-06-14T22:27:12.872Z,9.67
2018-06-14T22:29:16.580Z,9.63
2018-06-14T22:31:20.263Z,9.50
2018-06-14T22:33:35.216Z,9.50
2018-06-14T22:35:38.891Z,10.40
2018-06-14T22:37:42.638Z,9.20
2018-06-14T22:39:53.021Z,9.20
2018-06-14T22:41:56.639Z,8.60
2018-06-14T22:44:00.381Z,8.50
2018-06-14T22:46:04.299Z,9.03
2018-06-14T22:48:07.980Z,9.27
2018-06-14T22:50:11.648Z,7.77
2018-06-14T22:52:54.552Z,8.80
2018-06-14T22:54:58.221Z,7.33
2018-06-14T22:57:01.888Z,8.70
2018-06-14T22:59:05.582Z,8.70
2018-06-14T23:01:39.938Z,8.60
2018-06-14T23:03:43.573Z,8.93
2018-06-14T23:05:47.163Z,8.40
2018-06-14T23:07:50.745Z,8.70
2018-06-14T23:11:16.932Z,10.27
2018-06-14T23:13:20.660Z,7.93
2018-06-14T23:15:24.335Z,8.47
2018-06-14T23:17:28.063Z,8.60
2018-06-14T23:19:31.681Z,8.83
2018-06-14T23:21:35.274Z,9.23
2018-06-14T23:23:38.955Z,9.30
2018-06-14T23:25:42.587Z,8.70
2018-06-14T23:27:46.291Z,8.40
2018-06-14T23:29:49.971Z,8.47
2018-06-14T23:31:53.628Z,8.20
2018-06-14T23:33:57.268Z,9.73
2018-06-14T23:36:00.966Z,8.63
2018-06-14T23:38:04.657Z,11.10
2018-06-14T23:40:08.400Z,9.83
2018-06-14T23:42:12.138Z,8.93
2018-06-14T23:44:15.892Z,9.40
2018-06-14T23:46:19.544Z,10.37
2018-06-14T23:48:23.244Z,10.47
2018-06-14T23:50:26.888Z,10.17
2018-06-14T23:52:30.565Z,10.23
2018-06-14T23:54:34.265Z,10.23
2018-06-14T23:56:37.967Z,10.00
2018-06-14T23:58:42.030Z,9.70
